sensor_id;sensor_type;location;lat;lon;timestamp;noise_LAeq;noise_LA_min;noise_LA_max;noise_LA01;noise_LA95
72805;Laerm;60920;48.748;19.142;2023-06-14T00:02:00;33.60;32.12;35.40;;
72805;Laerm;60920;48.748;19.142;2023-06-14T00:04:25;33.44;32.08;34.76;;
72805;Laerm;60920;48.748;19.142;2023-06-14T00:06:51;33.35;31.98;35.02;;
72805;Laerm;60920;48.748;19.142;2023-06-14T00:09:16;33.23;31.99;34.67;;
72805;Laerm;60920;48.748;19.142;2023-06-14T00:11:44;33.30;31.79;34.64;;
72805;Laerm;60920;48.748;19.142;2023-06-14T00:14:10;33.39;31.83;34.77;;
72805;Laerm;60920;48.748;19.142;2023-06-14T00:16:35;33.89;32.09;37.57;;
72805;Laerm;60920;48.748;19.142;2023-06-14T00:19:02;33.48;32.07;35.34;;
72805;Laerm;60920;48.748;19.142;2023-06-14T00:21:30;33.69;32.15;37.99;;
72805;Laerm;60920;48.748;19.142;2023-06-14T00:23:57;33.67;32.13;37.25;;
72805;Laerm;60920;48.748;19.142;2023-06-14T00:26:22;33.54;32.17;34.96;;
72805;Laerm;60920;48.748;19.142;2023-06-14T00:28:47;33.58;31.82;35.76;;
72805;Laerm;60920;48.748;19.142;2023-06-14T00:31:12;33.47;31.72;36.65;;
72805;Laerm;60920;48.748;19.142;2023-06-14T00:33:38;33.60;32.19;36.70;;
72805;Laerm;60920;48.748;19.142;2023-06-14T00:36:03;33.47;31.81;37.83;;
72805;Laerm;60920;48.748;19.142;2023-06-14T00:38:28;33.53;31.87;37.70;;
72805;Laerm;60920;48.748;19.142;2023-06-14T00:40:54;33.45;31.93;37.24;;
72805;Laerm;60920;48.748;19.142;2023-06-14T00:43:19;33.80;31.92;38.89;;
72805;Laerm;60920;48.748;19.142;2023-06-14T00:45:44;33.43;31.69;36.09;;
72805;Laerm;60920;48.748;19.142;2023-06-14T00:48:10;33.30;31.73;34.68;;
72805;Laerm;60920;48.748;19.142;2023-06-14T00:50:36;33.36;31.93;35.97;;
72805;Laerm;60920;48.748;19.142;2023-06-14T00:53:01;33.43;32.00;36.99;;
72805;Laerm;60920;48.748;19.142;2023-06-14T00:55:27;33.26;31.86;34.51;;
72805;Laerm;60920;48.748;19.142;2023-06-14T00:57:53;33.27;31.75;34.52;;
72805;Laerm;60920;48.748;19.142;2023-06-14T01:00:19;33.70;31.91;40.25;;
72805;Laerm;60920;48.748;19.142;2023-06-14T01:02:44;33.33;31.86;35.40;;
72805;Laerm;60920;48.748;19.142;2023-06-14T01:05:10;33.38;32.09;34.96;;
72805;Laerm;60920;48.748;19.142;2023-06-14T01:07:42;33.32;31.91;34.46;;
72805;Laerm;60920;48.748;19.142;2023-06-14T01:15:14;33.47;31.97;37.02;;
72805;Laerm;60920;48.748;19.142;2023-06-14T01:17:40;33.37;31.85;35.40;;
72805;Laerm;60920;48.748;19.142;2023-06-14T01:20:10;33.44;31.89;36.07;;
72805;Laerm;60920;48.748;19.142;2023-06-14T01:22:44;33.53;31.87;36.78;;
72805;Laerm;60920;48.748;19.142;2023-06-14T01:25:10;33.39;31.93;35.47;;
72805;Laerm;60920;48.748;19.142;2023-06-14T01:27:37;33.41;32.05;35.35;;
72805;Laerm;60920;48.748;19.142;2023-06-14T01:30:02;33.47;32.00;36.49;;
72805;Laerm;60920;48.748;19.142;2023-06-14T01:32:28;33.32;31.79;34.81;;
72805;Laerm;60920;48.748;19.142;2023-06-14T01:34:54;33.37;31.86;38.21;;
72805;Laerm;60920;48.748;19.142;2023-06-14T01:37:20;33.42;31.91;38.84;;
72805;Laerm;60920;48.748;19.142;2023-06-14T01:39:47;33.53;32.06;35.45;;
72805;Laerm;60920;48.748;19.142;2023-06-14T01:42:12;33.64;32.11;37.39;;
72805;Laerm;60920;48.748;19.142;2023-06-14T01:44:39;33.37;31.97;35.91;;
72805;Laerm;60920;48.748;19.142;2023-06-14T01:47:05;33.51;31.79;35.83;;
72805;Laerm;60920;48.748;19.142;2023-06-14T01:49:33;33.65;32.19;36.07;;
72805;Laerm;60920;48.748;19.142;2023-06-14T01:51:58;33.65;32.16;35.87;;
72805;Laerm;60920;48.748;19.142;2023-06-14T01:54:24;33.94;32.35;38.80;;
72805;Laerm;60920;48.748;19.142;2023-06-14T01:56:50;33.90;32.13;39.13;;
72805;Laerm;60920;48.748;19.142;2023-06-14T01:59:16;33.75;31.97;41.30;;
72805;Laerm;60920;48.748;19.142;2023-06-14T02:01:41;33.83;32.25;41.20;;
72805;Laerm;60920;48.748;19.142;2023-06-14T02:04:06;33.47;31.90;40.15;;
72805;Laerm;60920;48.748;19.142;2023-06-14T02:06:32;33.47;32.00;35.67;;
72805;Laerm;60920;48.748;19.142;2023-06-14T02:09:00;33.66;32.21;36.28;;
72805;Laerm;60920;48.748;19.142;2023-06-14T02:11:25;33.64;32.18;36.36;;
72805;Laerm;60920;48.748;19.142;2023-06-14T02:13:52;33.80;32.13;36.82;;
72805;Laerm;60920;48.748;19.142;2023-06-14T02:16:17;33.69;31.96;36.63;;
72805;Laerm;60920;48.748;19.142;2023-06-14T02:18:43;33.78;32.08;37.22;;
72805;Laerm;60920;48.748;19.142;2023-06-14T02:21:08;33.65;31.91;36.63;;
72805;Laerm;60920;48.748;19.142;2023-06-14T02:23:33;33.63;31.87;37.55;;
72805;Laerm;60920;48.748;19.142;2023-06-14T02:25:58;33.55;32.12;42.17;;
72805;Laerm;60920;48.748;19.142;2023-06-14T02:28:24;33.61;31.87;36.69;;
72805;Laerm;60920;48.748;19.142;2023-06-14T02:30:49;33.88;32.20;37.90;;
72805;Laerm;60920;48.748;19.142;2023-06-14T02:33:14;33.92;32.37;39.05;;
72805;Laerm;60920;48.748;19.142;2023-06-14T02:35:40;33.94;32.24;40.42;;
72805;Laerm;60920;48.748;19.142;2023-06-14T02:38:05;33.76;32.06;39.72;;
72805;Laerm;60920;48.748;19.142;2023-06-14T02:40:32;34.25;32.25;39.08;;
72805;Laerm;60920;48.748;19.142;2023-06-14T02:42:57;33.65;32.08;38.68;;
72805;Laerm;60920;48.748;19.142;2023-06-14T02:45:22;33.80;32.21;37.36;;
72805;Laerm;60920;48.748;19.142;2023-06-14T02:47:48;33.78;32.06;36.63;;
72805;Laerm;60920;48.748;19.142;2023-06-14T02:50:13;33.94;32.19;42.74;;
72805;Laerm;60920;48.748;19.142;2023-06-14T02:52:38;33.64;32.01;37.29;;
72805;Laerm;60920;48.748;19.142;2023-06-14T02:55:05;33.59;31.82;36.02;;
72805;Laerm;60920;48.748;19.142;2023-06-14T02:57:31;33.79;32.14;36.46;;
72805;Laerm;60920;48.748;19.142;2023-06-14T02:59:56;33.74;32.25;40.93;;
72805;Laerm;60920;48.748;19.142;2023-06-14T03:02:21;33.87;32.22;37.34;;
72805;Laerm;60920;48.748;19.142;2023-06-14T03:04:47;33.69;32.23;35.22;;
72805;Laerm;60920;48.748;19.142;2023-06-14T03:07:12;33.85;32.43;35.90;;
72805;Laerm;60920;48.748;19.142;2023-06-14T03:09:38;33.84;31.91;36.73;;
72805;Laerm;60920;48.748;19.142;2023-06-14T03:12:05;34.22;32.36;39.64;;
72805;Laerm;60920;48.748;19.142;2023-06-14T03:14:32;33.90;32.11;37.85;;
72805;Laerm;60920;48.748;19.142;2023-06-14T03:16:57;33.78;32.39;35.39;;
72805;Laerm;60920;48.748;19.142;2023-06-14T03:19:24;33.83;32.10;35.99;;
72805;Laerm;60920;48.748;19.142;2023-06-14T03:21:51;34.45;32.33;40.24;;
72805;Laerm;60920;48.748;19.142;2023-06-14T03:24:16;34.09;32.41;36.67;;
72805;Laerm;60920;48.748;19.142;2023-06-14T03:26:42;34.07;32.31;37.30;;
72805;Laerm;60920;48.748;19.142;2023-06-14T03:29:07;33.86;32.33;36.89;;
72805;Laerm;60920;48.748;19.142;2023-06-14T03:31:34;34.16;32.46;37.04;;
72805;Laerm;60920;48.748;19.142;2023-06-14T03:34:00;33.94;32.30;36.40;;
72805;Laerm;60920;48.748;19.142;2023-06-14T03:36:25;34.06;32.36;36.80;;
72805;Laerm;60920;48.748;19.142;2023-06-14T03:38:50;34.19;32.49;37.73;;
72805;Laerm;60920;48.748;19.142;2023-06-14T03:41:16;34.41;32.52;45.53;;
72805;Laerm;60920;48.748;19.142;2023-06-14T03:43:41;34.12;32.18;40.03;;
72805;Laerm;60920;48.748;19.142;2023-06-14T03:46:06;34.36;32.70;37.98;;
72805;Laerm;60920;48.748;19.142;2023-06-14T03:48:32;34.35;32.50;38.53;;
72805;Laerm;60920;48.748;19.142;2023-06-14T03:50:57;34.07;32.44;38.36;;
72805;Laerm;60920;48.748;19.142;2023-06-14T03:53:23;33.98;32.37;35.97;;
72805;Laerm;60920;48.748;19.142;2023-06-14T03:55:49;34.27;32.58;38.07;;
72805;Laerm;60920;48.748;19.142;2023-06-14T03:58:15;34.41;32.44;40.16;;
72805;Laerm;60920;48.748;19.142;2023-06-14T04:00:40;33.94;31.98;37.22;;
72805;Laerm;60920;48.748;19.142;2023-06-14T04:03:05;34.12;32.59;38.85;;
72805;Laerm;60920;48.748;19.142;2023-06-14T04:05:31;34.26;32.30;37.39;;
72805;Laerm;60920;48.748;19.142;2023-06-14T04:07:56;34.19;32.49;37.02;;
72805;Laerm;60920;48.748;19.142;2023-06-14T04:10:22;34.60;32.54;40.25;;
72805;Laerm;60920;48.748;19.142;2023-06-14T04:12:47;34.28;32.44;36.56;;
72805;Laerm;60920;48.748;19.142;2023-06-14T04:15:13;34.05;32.22;37.05;;
72805;Laerm;60920;48.748;19.142;2023-06-14T04:17:38;34.54;32.65;38.49;;
72805;Laerm;60920;48.748;19.142;2023-06-14T04:20:04;34.28;32.52;36.61;;
72805;Laerm;60920;48.748;19.142;2023-06-14T04:22:31;34.18;32.26;36.83;;
72805;Laerm;60920;48.748;19.142;2023-06-14T04:24:57;34.52;32.58;36.66;;
72805;Laerm;60920;48.748;19.142;2023-06-14T04:27:22;34.73;33.02;38.41;;
72805;Laerm;60920;48.748;19.142;2023-06-14T04:29:50;34.52;32.43;36.73;;
72805;Laerm;60920;48.748;19.142;2023-06-14T04:32:20;34.71;32.76;37.36;;
72805;Laerm;60920;48.748;19.142;2023-06-14T04:34:46;34.70;32.86;36.97;;
72805;Laerm;60920;48.748;19.142;2023-06-14T04:37:12;34.91;32.81;47.04;;
72805;Laerm;60920;48.748;19.142;2023-06-14T04:39:38;34.63;32.66;42.17;;
72805;Laerm;60920;48.748;19.142;2023-06-14T04:42:03;34.87;33.04;38.76;;
72805;Laerm;60920;48.748;19.142;2023-06-14T04:44:29;34.48;32.78;38.51;;
72805;Laerm;60920;48.748;19.142;2023-06-14T04:46:57;34.69;32.78;38.38;;
72805;Laerm;60920;48.748;19.142;2023-06-14T04:49:23;34.57;32.49;38.12;;
72805;Laerm;60920;48.748;19.142;2023-06-14T04:51:49;34.68;32.43;39.43;;
72805;Laerm;60920;48.748;19.142;2023-06-14T04:54:22;34.86;32.52;37.73;;
72805;Laerm;60920;48.748;19.142;2023-06-14T04:56:49;34.85;32.88;38.08;;
72805;Laerm;60920;48.748;19.142;2023-06-14T04:59:15;34.83;33.06;41.58;;
72805;Laerm;60920;48.748;19.142;2023-06-14T05:01:42;34.61;32.66;37.82;;
72805;Laerm;60920;48.748;19.142;2023-06-14T05:04:16;34.79;32.79;38.45;;
72805;Laerm;60920;48.748;19.142;2023-06-14T05:06:42;34.77;32.49;38.62;;
72805;Laerm;60920;48.748;19.142;2023-06-14T05:09:09;34.45;32.59;36.49;;
72805;Laerm;60920;48.748;19.142;2023-06-14T05:11:35;35.13;32.91;39.83;;
72805;Laerm;60920;48.748;19.142;2023-06-14T05:14:00;34.64;32.46;37.88;;
72805;Laerm;60920;48.748;19.142;2023-06-14T05:16:26;34.80;32.57;37.56;;
72805;Laerm;60920;48.748;19.142;2023-06-14T05:18:52;34.89;32.60;38.25;;
72805;Laerm;60920;48.748;19.142;2023-06-14T05:21:18;34.68;32.93;37.17;;
72805;Laerm;60920;48.748;19.142;2023-06-14T05:23:44;35.15;33.05;39.54;;
72805;Laerm;60920;48.748;19.142;2023-06-14T05:26:10;34.72;32.68;36.93;;
72805;Laerm;60920;48.748;19.142;2023-06-14T05:28:35;34.98;32.83;37.84;;
72805;Laerm;60920;48.748;19.142;2023-06-14T05:31:01;34.82;32.40;37.72;;
72805;Laerm;60920;48.748;19.142;2023-06-14T05:33:26;35.06;33.21;38.48;;
72805;Laerm;60920;48.748;19.142;2023-06-14T05:35:51;34.87;33.05;41.07;;
72805;Laerm;60920;48.748;19.142;2023-06-14T05:38:17;35.67;32.95;44.38;;
72805;Laerm;60920;48.748;19.142;2023-06-14T05:40:45;35.11;32.83;38.96;;
72805;Laerm;60920;48.748;19.142;2023-06-14T05:43:10;35.02;32.70;37.32;;
72805;Laerm;60920;48.748;19.142;2023-06-14T05:45:36;35.16;33.42;38.13;;
72805;Laerm;60920;48.748;19.142;2023-06-14T05:48:01;34.96;32.92;37.41;;
72805;Laerm;60920;48.748;19.142;2023-06-14T05:50:26;35.11;32.95;40.18;;
72805;Laerm;60920;48.748;19.142;2023-06-14T05:52:52;34.87;32.76;43.97;;
72805;Laerm;60920;48.748;19.142;2023-06-14T05:55:18;35.09;32.78;47.73;;
72805;Laerm;60920;48.748;19.142;2023-06-14T05:57:46;35.01;32.84;40.47;;
72805;Laerm;60920;48.748;19.142;2023-06-14T06:00:13;34.82;32.74;40.82;;
72805;Laerm;60920;48.748;19.142;2023-06-14T06:02:41;35.08;32.87;40.88;;
72805;Laerm;60920;48.748;19.142;2023-06-14T06:05:11;35.01;32.69;41.10;;
72805;Laerm;60920;48.748;19.142;2023-06-14T06:07:37;34.64;32.50;40.20;;
72805;Laerm;60920;48.748;19.142;2023-06-14T06:10:03;34.64;32.66;40.37;;
72805;Laerm;60920;48.748;19.142;2023-06-14T06:12:28;34.57;32.22;40.23;;
72805;Laerm;60920;48.748;19.142;2023-06-14T06:14:54;34.39;32.52;42.12;;
72805;Laerm;60920;48.748;19.142;2023-06-14T06:17:20;34.39;32.56;37.96;;
72805;Laerm;60920;48.748;19.142;2023-06-14T06:19:45;34.43;32.02;37.76;;
72805;Laerm;60920;48.748;19.142;2023-06-14T06:22:11;34.62;32.42;38.84;;
72805;Laerm;60920;48.748;19.142;2023-06-14T06:24:36;34.58;32.22;39.48;;
72805;Laerm;60920;48.748;19.142;2023-06-14T06:27:01;34.91;32.49;39.20;;
72805;Laerm;60920;48.748;19.142;2023-06-14T06:29:27;34.55;32.52;37.97;;
72805;Laerm;60920;48.748;19.142;2023-06-14T06:31:52;35.02;32.42;43.39;;
72805;Laerm;60920;48.748;19.142;2023-06-14T06:34:18;34.80;32.66;40.03;;
72805;Laerm;60920;48.748;19.142;2023-06-14T06:36:43;34.32;32.47;36.59;;
72805;Laerm;60920;48.748;19.142;2023-06-14T06:39:08;34.32;32.19;40.00;;
72805;Laerm;60920;48.748;19.142;2023-06-14T06:41:39;34.89;32.78;41.57;;
72805;Laerm;60920;48.748;19.142;2023-06-14T06:44:05;34.19;32.26;37.61;;
72805;Laerm;60920;48.748;19.142;2023-06-14T06:46:34;34.68;32.50;42.02;;
72805;Laerm;60920;48.748;19.142;2023-06-14T06:49:00;34.77;32.30;41.51;;
72805;Laerm;60920;48.748;19.142;2023-06-14T06:51:25;34.81;32.41;41.73;;
72805;Laerm;60920;48.748;19.142;2023-06-14T06:53:54;34.92;32.14;40.06;;
72805;Laerm;60920;48.748;19.142;2023-06-14T06:56:20;35.06;32.38;43.70;;
72805;Laerm;60920;48.748;19.142;2023-06-14T06:58:46;34.52;32.09;40.66;;
72805;Laerm;60920;48.748;19.142;2023-06-14T07:01:12;34.97;32.32;42.39;;
72805;Laerm;60920;48.748;19.142;2023-06-14T07:03:38;34.57;32.57;39.17;;
72805;Laerm;60920;48.748;19.142;2023-06-14T07:06:03;34.49;32.43;40.19;;
72805;Laerm;60920;48.748;19.142;2023-06-14T07:08:29;34.05;31.96;40.28;;
72805;Laerm;60920;48.748;19.142;2023-06-14T07:10:54;34.31;32.16;38.61;;
72805;Laerm;60920;48.748;19.142;2023-06-14T07:13:21;35.77;32.56;51.74;;
72805;Laerm;60920;48.748;19.142;2023-06-14T07:15:46;34.29;32.18;37.86;;
72805;Laerm;60920;48.748;19.142;2023-06-14T07:18:12;34.29;31.93;40.70;;
72805;Laerm;60920;48.748;19.142;2023-06-14T07:20:38;34.69;32.57;40.85;;
72805;Laerm;60920;48.748;19.142;2023-06-14T07:23:03;34.77;31.94;40.37;;
72805;Laerm;60920;48.748;19.142;2023-06-14T07:25:28;34.76;32.60;41.04;;
72805;Laerm;60920;48.748;19.142;2023-06-14T07:27:53;34.79;32.13;40.51;;
72805;Laerm;60920;48.748;19.142;2023-06-14T07:30:19;34.33;31.97;38.50;;
72805;Laerm;60920;48.748;19.142;2023-06-14T07:32:44;34.08;31.85;38.28;;
72805;Laerm;60920;48.748;19.142;2023-06-14T07:35:09;34.94;32.45;39.64;;
72805;Laerm;60920;48.748;19.142;2023-06-14T07:37:35;34.49;32.10;37.77;;
72805;Laerm;60920;48.748;19.142;2023-06-14T07:40:01;34.35;31.85;38.50;;
72805;Laerm;60920;48.748;19.142;2023-06-14T07:42:32;34.62;32.25;41.87;;
72805;Laerm;60920;48.748;19.142;2023-06-14T07:44:57;34.96;31.53;44.85;;
72805;Laerm;60920;48.748;19.142;2023-06-14T07:47:22;34.48;32.09;42.88;;
72805;Laerm;60920;48.748;19.142;2023-06-14T07:49:47;35.07;31.69;44.54;;
72805;Laerm;60920;48.748;19.142;2023-06-14T07:52:13;34.82;31.96;40.22;;
72805;Laerm;60920;48.748;19.142;2023-06-14T07:54:38;34.69;31.58;41.71;;
72805;Laerm;60920;48.748;19.142;2023-06-14T07:57:04;34.78;32.07;40.85;;
72805;Laerm;60920;48.748;19.142;2023-06-14T07:59:29;34.36;31.18;39.03;;
72805;Laerm;60920;48.748;19.142;2023-06-14T08:01:54;34.85;31.80;40.67;;
72805;Laerm;60920;48.748;19.142;2023-06-14T08:04:20;34.34;31.63;40.22;;
72805;Laerm;60920;48.748;19.142;2023-06-14T08:06:45;34.43;31.67;44.73;;
72805;Laerm;60920;48.748;19.142;2023-06-14T08:09:11;34.35;31.70;40.47;;
72805;Laerm;60920;48.748;19.142;2023-06-14T08:11:37;34.68;32.00;42.52;;
72805;Laerm;60920;48.748;19.142;2023-06-14T08:14:02;33.84;31.77;37.31;;
72805;Laerm;60920;48.748;19.142;2023-06-14T08:16:28;34.55;31.66;40.83;;
72805;Laerm;60920;48.748;19.142;2023-06-14T08:18:53;34.42;31.92;40.34;;
72805;Laerm;60920;48.748;19.142;2023-06-14T08:21:18;34.26;31.71;37.73;;
72805;Laerm;60920;48.748;19.142;2023-06-14T08:23:44;34.37;31.96;39.13;;
72805;Laerm;60920;48.748;19.142;2023-06-14T08:26:09;34.58;31.91;40.30;;
72805;Laerm;60920;48.748;19.142;2023-06-14T08:28:35;34.09;31.58;40.13;;
72805;Laerm;60920;48.748;19.142;2023-06-14T08:31:00;34.23;31.88;41.41;;
72805;Laerm;60920;48.748;19.142;2023-06-14T08:33:26;34.42;31.74;39.63;;
72805;Laerm;60920;48.748;19.142;2023-06-14T08:35:52;34.87;32.47;41.86;;
72805;Laerm;60920;48.748;19.142;2023-06-14T08:38:17;35.26;31.77;44.07;;
72805;Laerm;60920;48.748;19.142;2023-06-14T08:40:42;35.26;31.49;41.60;;
72805;Laerm;60920;48.748;19.142;2023-06-14T08:43:10;35.04;32.20;43.75;;
72805;Laerm;60920;48.748;19.142;2023-06-14T08:45:35;35.39;31.50;47.59;;
72805;Laerm;60920;48.748;19.142;2023-06-14T08:48:01;35.88;30.89;47.39;;
72805;Laerm;60920;48.748;19.142;2023-06-14T08:50:26;35.18;31.78;45.56;;
72805;Laerm;60920;48.748;19.142;2023-06-14T08:52:55;34.67;31.34;42.97;;
72805;Laerm;60920;48.748;19.142;2023-06-14T08:55:22;33.65;31.02;37.41;;
72805;Laerm;60920;48.748;19.142;2023-06-14T08:57:50;34.35;31.62;43.33;;
72805;Laerm;60920;48.748;19.142;2023-06-14T09:00:16;34.62;30.86;47.51;;
72805;Laerm;60920;48.748;19.142;2023-06-14T09:02:42;34.37;32.18;41.50;;
72805;Laerm;60920;48.748;19.142;2023-06-14T09:05:09;34.79;31.31;43.52;;
72805;Laerm;60920;48.748;19.142;2023-06-14T09:07:34;34.41;31.45;41.59;;
72805;Laerm;60920;48.748;19.142;2023-06-14T09:10:07;34.60;32.00;38.77;;
72805;Laerm;60920;48.748;19.142;2023-06-14T09:12:33;34.66;31.83;45.30;;
72805;Laerm;60920;48.748;19.142;2023-06-14T09:14:58;34.68;31.62;42.82;;
72805;Laerm;60920;48.748;19.142;2023-06-14T09:17:24;33.95;31.10;38.62;;
72805;Laerm;60920;48.748;19.142;2023-06-14T09:19:50;34.02;30.91;40.17;;
72805;Laerm;60920;48.748;19.142;2023-06-14T09:22:16;34.33;31.72;43.40;;
72805;Laerm;60920;48.748;19.142;2023-06-14T09:24:41;34.51;31.09;43.04;;
72805;Laerm;60920;48.748;19.142;2023-06-14T09:27:07;34.11;31.48;40.03;;
72805;Laerm;60920;48.748;19.142;2023-06-14T09:29:33;38.72;32.07;55.16;;
72805;Laerm;60920;48.748;19.142;2023-06-14T09:31:58;34.03;30.91;41.63;;
72805;Laerm;60920;48.748;19.142;2023-06-14T09:34:24;35.41;31.30;46.94;;
72805;Laerm;60920;48.748;19.142;2023-06-14T09:36:49;37.55;30.53;50.22;;
72805;Laerm;60920;48.748;19.142;2023-06-14T09:39:16;34.38;30.71;41.08;;
72805;Laerm;60920;48.748;19.142;2023-06-14T09:41:42;34.98;31.63;46.55;;
72805;Laerm;60920;48.748;19.142;2023-06-14T09:44:08;35.02;31.82;46.84;;
72805;Laerm;60920;48.748;19.142;2023-06-14T09:46:34;35.07;31.78;42.36;;
72805;Laerm;60920;48.748;19.142;2023-06-14T09:49:00;34.91;31.58;40.64;;
72805;Laerm;60920;48.748;19.142;2023-06-14T09:51:26;34.90;31.21;47.00;;
72805;Laerm;60920;48.748;19.142;2023-06-14T09:53:52;34.63;31.68;43.05;;
72805;Laerm;60920;48.748;19.142;2023-06-14T09:56:23;35.25;31.99;52.21;;
72805;Laerm;60920;48.748;19.142;2023-06-14T09:58:51;34.99;31.94;43.41;;
72805;Laerm;60920;48.748;19.142;2023-06-14T10:01:19;36.37;32.73;44.34;;
72805;Laerm;60920;48.748;19.142;2023-06-14T10:03:45;36.51;32.13;52.62;;
72805;Laerm;60920;48.748;19.142;2023-06-14T10:06:11;35.21;31.30;45.52;;
72805;Laerm;60920;48.748;19.142;2023-06-14T10:08:37;36.90;32.02;54.09;;
72805;Laerm;60920;48.748;19.142;2023-06-14T10:11:02;33.94;31.00;39.45;;
72805;Laerm;60920;48.748;19.142;2023-06-14T10:13:28;34.82;31.73;41.92;;
72805;Laerm;60920;48.748;19.142;2023-06-14T10:21:13;33.47;30.62;39.82;;
72805;Laerm;60920;48.748;19.142;2023-06-14T10:23:40;33.65;30.11;43.31;;
72805;Laerm;60920;48.748;19.142;2023-06-14T10:26:07;33.63;30.20;41.43;;
72805;Laerm;60920;48.748;19.142;2023-06-14T10:28:32;33.28;30.11;38.47;;
72805;Laerm;60920;48.748;19.142;2023-06-14T10:31:06;34.29;29.77;46.12;;
72805;Laerm;60920;48.748;19.142;2023-06-14T10:33:32;35.02;29.78;46.38;;
72805;Laerm;60920;48.748;19.142;2023-06-14T10:36:08;34.85;30.69;43.97;;
72805;Laerm;60920;48.748;19.142;2023-06-14T10:38:33;34.46;30.43;40.36;;
72805;Laerm;60920;48.748;19.142;2023-06-14T10:41:00;34.23;29.65;41.34;;
72805;Laerm;60920;48.748;19.142;2023-06-14T10:43:26;34.20;31.19;39.94;;
72805;Laerm;60920;48.748;19.142;2023-06-14T10:46:11;34.54;30.40;41.37;;
72805;Laerm;60920;48.748;19.142;2023-06-14T10:48:40;34.04;30.96;41.54;;
72805;Laerm;60920;48.748;19.142;2023-06-14T10:51:05;33.98;30.63;38.41;;
72805;Laerm;60920;48.748;19.142;2023-06-14T10:53:39;34.13;31.05;41.88;;
72805;Laerm;60920;48.748;19.142;2023-06-14T10:56:08;34.63;30.42;43.83;;
72805;Laerm;60920;48.748;19.142;2023-06-14T10:58:33;34.49;30.29;41.73;;
72805;Laerm;60920;48.748;19.142;2023-06-14T11:00:58;34.90;30.23;48.00;;
72805;Laerm;60920;48.748;19.142;2023-06-14T11:03:31;34.06;29.89;51.81;;
72805;Laerm;60920;48.748;19.142;2023-06-14T11:06:01;37.93;33.94;61.59;;
72805;Laerm;60920;48.748;19.142;2023-06-14T11:11:05;35.65;32.20;43.75;;
72805;Laerm;60920;48.748;19.142;2023-06-14T11:13:31;35.97;31.67;42.67;;
72805;Laerm;60920;48.748;19.142;2023-06-14T11:15:56;35.58;32.54;47.20;;
72805;Laerm;60920;48.748;19.142;2023-06-14T11:18:23;38.66;32.88;51.74;;
72805;Laerm;60920;48.748;19.142;2023-06-14T11:20:52;34.90;31.57;40.94;;
72805;Laerm;60920;48.748;19.142;2023-06-14T11:23:18;35.40;32.48;44.38;;
72805;Laerm;60920;48.748;19.142;2023-06-14T11:25:43;34.73;31.87;42.07;;
72805;Laerm;60920;48.748;19.142;2023-06-14T11:28:08;35.20;32.16;39.48;;
72805;Laerm;60920;48.748;19.142;2023-06-14T11:30:34;35.36;32.04;50.75;;
72805;Laerm;60920;48.748;19.142;2023-06-14T11:32:59;35.28;32.60;42.87;;
72805;Laerm;60920;48.748;19.142;2023-06-14T11:35:25;35.27;31.44;42.07;;
72805;Laerm;60920;48.748;19.142;2023-06-14T11:37:54;34.36;30.94;38.18;;
72805;Laerm;60920;48.748;19.142;2023-06-14T11:40:23;33.88;31.19;38.31;;
72805;Laerm;60920;48.748;19.142;2023-06-14T11:42:48;34.10;31.10;42.54;;
72805;Laerm;60920;48.748;19.142;2023-06-14T11:45:14;34.17;30.83;43.04;;
72805;Laerm;60920;48.748;19.142;2023-06-14T11:47:39;34.38;31.68;42.04;;
72805;Laerm;60920;48.748;19.142;2023-06-14T11:50:05;33.97;31.53;43.04;;
72805;Laerm;60920;48.748;19.142;2023-06-14T11:52:31;35.74;32.16;46.51;;
72805;Laerm;60920;48.748;19.142;2023-06-14T11:54:57;34.95;32.00;41.24;;
72805;Laerm;60920;48.748;19.142;2023-06-14T11:57:22;34.87;31.36;45.74;;
72805;Laerm;60920;48.748;19.142;2023-06-14T11:59:48;34.96;31.78;39.02;;
72805;Laerm;60920;48.748;19.142;2023-06-14T12:02:17;34.23;32.26;37.92;;
72805;Laerm;60920;48.748;19.142;2023-06-14T12:04:43;35.03;32.65;44.53;;
72805;Laerm;60920;48.748;19.142;2023-06-14T12:07:11;35.07;31.79;39.94;;
72805;Laerm;60920;48.748;19.142;2023-06-14T12:09:40;34.66;32.38;39.01;;
72805;Laerm;60920;48.748;19.142;2023-06-14T12:12:06;34.68;31.74;40.39;;
72805;Laerm;60920;48.748;19.142;2023-06-14T12:14:31;34.23;31.87;40.78;;
72805;Laerm;60920;48.748;19.142;2023-06-14T12:17:03;35.04;31.99;41.33;;
72805;Laerm;60920;48.748;19.142;2023-06-14T12:19:29;35.41;31.74;51.95;;
72805;Laerm;60920;48.748;19.142;2023-06-14T12:21:54;34.63;31.97;42.73;;
72805;Laerm;60920;48.748;19.142;2023-06-14T12:24:19;34.09;31.49;38.29;;
72805;Laerm;60920;48.748;19.142;2023-06-14T12:26:45;34.56;31.63;40.32;;
72805;Laerm;60920;48.748;19.142;2023-06-14T12:29:10;34.15;31.34;37.81;;
72805;Laerm;60920;48.748;19.142;2023-06-14T12:31:37;34.59;31.51;41.39;;
72805;Laerm;60920;48.748;19.142;2023-06-14T12:34:02;35.10;32.79;44.24;;
72805;Laerm;60920;48.748;19.142;2023-06-14T12:36:28;35.40;32.96;52.49;;
72805;Laerm;60920;48.748;19.142;2023-06-14T12:38:53;35.86;33.00;49.70;;
72805;Laerm;60920;48.748;19.142;2023-06-14T12:41:19;35.94;33.17;47.28;;
72805;Laerm;60920;48.748;19.142;2023-06-14T12:43:47;35.42;32.22;42.32;;
72805;Laerm;60920;48.748;19.142;2023-06-14T12:46:12;35.75;33.09;42.44;;
72805;Laerm;60920;48.748;19.142;2023-06-14T12:48:37;36.28;32.25;44.41;;
72805;Laerm;60920;48.748;19.142;2023-06-14T12:51:03;35.17;32.85;38.53;;
72805;Laerm;60920;48.748;19.142;2023-06-14T12:53:28;35.55;32.93;39.35;;
72805;Laerm;60920;48.748;19.142;2023-06-14T12:55:53;34.52;31.75;39.31;;
72805;Laerm;60920;48.748;19.142;2023-06-14T12:58:19;34.31;32.07;41.77;;
72805;Laerm;60920;48.748;19.142;2023-06-14T13:00:45;33.91;30.98;40.24;;
72805;Laerm;60920;48.748;19.142;2023-06-14T13:03:10;33.48;30.64;37.32;;
72805;Laerm;60920;48.748;19.142;2023-06-14T13:05:35;33.60;30.95;41.43;;
72805;Laerm;60920;48.748;19.142;2023-06-14T13:08:02;33.69;30.71;39.35;;
72805;Laerm;60920;48.748;19.142;2023-06-14T13:10:27;34.36;31.04;40.88;;
72805;Laerm;60920;48.748;19.142;2023-06-14T13:12:53;33.90;31.34;38.95;;
72805;Laerm;60920;48.748;19.142;2023-06-14T13:15:18;34.08;31.20;39.94;;
72805;Laerm;60920;48.748;19.142;2023-06-14T13:17:43;34.17;30.97;42.33;;
72805;Laerm;60920;48.748;19.142;2023-06-14T13:20:13;33.75;30.38;40.76;;
72805;Laerm;60920;48.748;19.142;2023-06-14T13:22:39;33.51;31.06;39.38;;
72805;Laerm;60920;48.748;19.142;2023-06-14T13:25:04;33.24;29.68;43.61;;
72805;Laerm;60920;48.748;19.142;2023-06-14T13:27:30;34.73;31.55;40.03;;
72805;Laerm;60920;48.748;19.142;2023-06-14T13:29:56;34.22;30.82;39.89;;
72805;Laerm;60920;48.748;19.142;2023-06-14T13:32:21;34.13;30.76;40.40;;
72805;Laerm;60920;48.748;19.142;2023-06-14T13:34:47;33.96;30.57;45.12;;
72805;Laerm;60920;48.748;19.142;2023-06-14T13:37:12;34.52;30.80;42.68;;
72805;Laerm;60920;48.748;19.142;2023-06-14T13:39:37;33.84;30.05;42.20;;